sensor_id;sensor_type;location;lat;lon;timestamp;P1;durP1;ratioP1;P2;durP2;ratioP2
10711;SDS011;5407;51.234;6.804;2023-10-09T00:02:23;28.83;;;16.60;;
10711;SDS011;5407;51.234;6.804;2023-10-09T00:04:51;30.07;;;16.43;;
10711;SDS011;5407;51.234;6.804;2023-10-09T00:07:18;29.23;;;16.73;;
10711;SDS011;5407;51.234;6.804;2023-10-09T00:09:48;28.97;;;16.20;;
10711;SDS011;5407;51.234;6.804;2023-10-09T00:12:17;28.13;;;16.90;;
10711;SDS011;5407;51.234;6.804;2023-10-09T00:14:48;25.63;;;15.80;;
10711;SDS011;5407;51.234;6.804;2023-10-09T00:17:15;29.10;;;16.60;;
10711;SDS011;5407;51.234;6.804;2023-10-09T00:19:47;27.03;;;16.17;;
10711;SDS011;5407;51.234;6.804;2023-10-09T00:22:16;30.93;;;16.67;;
10711;SDS011;5407;51.234;6.804;2023-10-09T00:24:55;25.87;;;15.53;;
10711;SDS011;5407;51.234;6.804;2023-10-09T00:27:39;25.87;;;15.73;;
10711;SDS011;5407;51.234;6.804;2023-10-09T00:30:08;30.50;;;16.20;;
10711;SDS011;5407;51.234;6.804;2023-10-09T00:32:40;25.77;;;15.50;;
10711;SDS011;5407;51.234;6.804;2023-10-09T00:35:24;26.50;;;15.43;;
10711;SDS011;5407;51.234;6.804;2023-10-09T00:38:11;30.57;;;15.60;;
10711;SDS011;5407;51.234;6.804;2023-10-09T00:40:48;31.43;;;16.27;;
10711;SDS011;5407;51.234;6.804;2023-10-09T00:43:30;23.50;;;15.57;;
10711;SDS011;5407;51.234;6.804;2023-10-09T00:46:01;24.00;;;16.00;;
10711;SDS011;5407;51.234;6.804;2023-10-09T00:48:33;26.80;;;14.83;;
10711;SDS011;5407;51.234;6.804;2023-10-09T00:51:04;23.70;;;15.23;;
10711;SDS011;5407;51.234;6.804;2023-10-09T00:53:42;23.77;;;15.40;;
10711;SDS011;5407;51.234;6.804;2023-10-09T00:56:10;23.10;;;15.30;;
10711;SDS011;5407;51.234;6.804;2023-10-09T00:58:46;25.30;;;14.73;;
10711;SDS011;5407;51.234;6.804;2023-10-09T01:01:20;24.27;;;14.97;;
10711;SDS011;5407;51.234;6.804;2023-10-09T01:03:51;25.27;;;15.20;;
10711;SDS011;5407;51.234;6.804;2023-10-09T01:06:18;27.97;;;15.60;;
10711;SDS011;5407;51.234;6.804;2023-10-09T01:08:46;22.23;;;14.47;;
10711;SDS011;5407;51.234;6.804;2023-10-09T01:11:21;26.37;;;15.37;;
10711;SDS011;5407;51.234;6.804;2023-10-09T01:13:56;26.07;;;14.87;;
10711;SDS011;5407;51.234;6.804;2023-10-09T01:16:37;24.73;;;15.30;;
10711;SDS011;5407;51.234;6.804;2023-10-09T01:19:06;24.97;;;15.50;;
10711;SDS011;5407;51.234;6.804;2023-10-09T01:21:38;21.27;;;14.33;;
10711;SDS011;5407;51.234;6.804;2023-10-09T01:24:07;22.37;;;14.33;;
10711;SDS011;5407;51.234;6.804;2023-10-09T01:26:35;26.43;;;15.50;;
10711;SDS011;5407;51.234;6.804;2023-10-09T01:29:09;25.20;;;14.30;;
10711;SDS011;5407;51.234;6.804;2023-10-09T01:31:39;22.87;;;14.43;;
10711;SDS011;5407;51.234;6.804;2023-10-09T01:34:16;25.30;;;14.83;;
10711;SDS011;5407;51.234;6.804;2023-10-09T01:36:44;22.50;;;13.80;;
10711;SDS011;5407;51.234;6.804;2023-10-09T01:39:15;24.23;;;14.63;;
10711;SDS011;5407;51.234;6.804;2023-10-09T01:41:51;24.23;;;14.37;;
10711;SDS011;5407;51.234;6.804;2023-10-09T01:44:27;22.87;;;13.87;;
10711;SDS011;5407;51.234;6.804;2023-10-09T01:46:55;23.20;;;14.30;;
10711;SDS011;5407;51.234;6.804;2023-10-09T01:49:23;20.67;;;14.00;;
10711;SDS011;5407;51.234;6.804;2023-10-09T01:51:56;21.37;;;13.90;;
10711;SDS011;5407;51.234;6.804;2023-10-09T01:54:36;22.43;;;13.30;;
10711;SDS011;5407;51.234;6.804;2023-10-09T01:57:03;20.50;;;13.90;;
10711;SDS011;5407;51.234;6.804;2023-10-09T01:59:37;20.07;;;13.40;;
10711;SDS011;5407;51.234;6.804;2023-10-09T02:02:09;22.00;;;13.90;;
10711;SDS011;5407;51.234;6.804;2023-10-09T02:04:57;22.83;;;13.50;;
10711;SDS011;5407;51.234;6.804;2023-10-09T02:07:49;22.53;;;13.63;;
10711;SDS011;5407;51.234;6.804;2023-10-09T02:10:19;20.07;;;13.63;;
10711;SDS011;5407;51.234;6.804;2023-10-09T02:13:02;23.27;;;13.67;;
10711;SDS011;5407;51.234;6.804;2023-10-09T02:15:33;19.63;;;13.37;;
10711;SDS011;5407;51.234;6.804;2023-10-09T02:18:11;21.20;;;13.57;;
10711;SDS011;5407;51.234;6.804;2023-10-09T02:20:52;23.17;;;13.53;;
10711;SDS011;5407;51.234;6.804;2023-10-09T02:23:26;23.90;;;14.17;;
10711;SDS011;5407;51.234;6.804;2023-10-09T02:26:05;23.43;;;13.57;;
10711;SDS011;5407;51.234;6.804;2023-10-09T02:28:33;26.77;;;14.93;;
10711;SDS011;5407;51.234;6.804;2023-10-09T02:31:09;21.43;;;13.67;;
10711;SDS011;5407;51.234;6.804;2023-10-09T02:33:37;22.90;;;13.50;;
10711;SDS011;5407;51.234;6.804;2023-10-09T02:36:05;23.50;;;14.10;;
10711;SDS011;5407;51.234;6.804;2023-10-09T02:38:33;24.97;;;13.13;;
10711;SDS011;5407;51.234;6.804;2023-10-09T02:41:03;23.63;;;13.13;;
10711;SDS011;5407;51.234;6.804;2023-10-09T02:43:54;20.40;;;13.10;;
10711;SDS011;5407;51.234;6.804;2023-10-09T02:46:23;20.87;;;13.33;;
10711;SDS011;5407;51.234;6.804;2023-10-09T02:48:56;21.77;;;13.10;;
10711;SDS011;5407;51.234;6.804;2023-10-09T02:51:24;22.20;;;13.07;;
10711;SDS011;5407;51.234;6.804;2023-10-09T02:54:02;20.07;;;12.73;;
10711;SDS011;5407;51.234;6.804;2023-10-09T02:56:52;20.90;;;12.73;;
10711;SDS011;5407;51.234;6.804;2023-10-09T02:59:24;22.43;;;12.97;;
10711;SDS011;5407;51.234;6.804;2023-10-09T03:01:51;21.90;;;12.90;;
10711;SDS011;5407;51.234;6.804;2023-10-09T03:04:18;19.40;;;13.53;;
10711;SDS011;5407;51.234;6.804;2023-10-09T03:06:48;22.90;;;12.67;;
10711;SDS011;5407;51.234;6.804;2023-10-09T03:09:16;23.47;;;13.13;;
10711;SDS011;5407;51.234;6.804;2023-10-09T03:11:44;21.10;;;12.47;;
10711;SDS011;5407;51.234;6.804;2023-10-09T03:14:13;22.03;;;12.33;;
10711;SDS011;5407;51.234;6.804;2023-10-09T03:16:42;22.60;;;12.67;;
10711;SDS011;5407;51.234;6.804;2023-10-09T03:19:09;18.50;;;12.60;;
10711;SDS011;5407;51.234;6.804;2023-10-09T03:21:39;24.73;;;12.40;;
10711;SDS011;5407;51.234;6.804;2023-10-09T03:24:06;19.67;;;13.27;;
10711;SDS011;5407;51.234;6.804;2023-10-09T03:26:33;19.30;;;12.17;;
10711;SDS011;5407;51.234;6.804;2023-10-09T03:29:01;20.00;;;12.50;;
10711;SDS011;5407;51.234;6.804;2023-10-09T03:31:31;20.13;;;12.43;;
10711;SDS011;5407;51.234;6.804;2023-10-09T03:34:00;19.17;;;12.03;;
10711;SDS011;5407;51.234;6.804;2023-10-09T03:36:28;19.10;;;12.20;;
10711;SDS011;5407;51.234;6.804;2023-10-09T03:38:56;17.70;;;12.07;;
10711;SDS011;5407;51.234;6.804;2023-10-09T03:41:23;19.33;;;11.77;;
10711;SDS011;5407;51.234;6.804;2023-10-09T03:43:51;19.50;;;12.47;;
10711;SDS011;5407;51.234;6.804;2023-10-09T03:46:19;31.83;;;13.00;;
10711;SDS011;5407;51.234;6.804;2023-10-09T03:48:48;24.37;;;12.10;;
10711;SDS011;5407;51.234;6.804;2023-10-09T03:51:16;21.93;;;12.77;;
10711;SDS011;5407;51.234;6.804;2023-10-09T03:53:47;18.23;;;12.23;;
10711;SDS011;5407;51.234;6.804;2023-10-09T03:56:15;16.73;;;12.37;;
10711;SDS011;5407;51.234;6.804;2023-10-09T03:58:43;18.83;;;11.30;;
10711;SDS011;5407;51.234;6.804;2023-10-09T04:01:12;22.90;;;11.70;;
10711;SDS011;5407;51.234;6.804;2023-10-09T04:03:48;18.87;;;11.57;;
10711;SDS011;5407;51.234;6.804;2023-10-09T04:06:16;19.23;;;11.67;;
10711;SDS011;5407;51.234;6.804;2023-10-09T04:08:43;21.17;;;11.83;;
10711;SDS011;5407;51.234;6.804;2023-10-09T04:11:14;17.40;;;11.37;;
10711;SDS011;5407;51.234;6.804;2023-10-09T04:13:48;17.93;;;11.27;;
10711;SDS011;5407;51.234;6.804;2023-10-09T04:16:17;19.30;;;11.57;;
10711;SDS011;5407;51.234;6.804;2023-10-09T04:19:00;18.93;;;11.37;;
10711;SDS011;5407;51.234;6.804;2023-10-09T04:21:37;20.70;;;11.40;;
10711;SDS011;5407;51.234;6.804;2023-10-09T04:24:04;21.00;;;11.60;;
10711;SDS011;5407;51.234;6.804;2023-10-09T04:26:50;20.47;;;11.73;;
10711;SDS011;5407;51.234;6.804;2023-10-09T04:29:24;16.67;;;11.27;;
10711;SDS011;5407;51.234;6.804;2023-10-09T04:31:54;17.80;;;11.43;;
10711;SDS011;5407;51.234;6.804;2023-10-09T04:34:23;14.13;;;11.17;;
10711;SDS011;5407;51.234;6.804;2023-10-09T04:37:01;19.20;;;10.50;;
10711;SDS011;5407;51.234;6.804;2023-10-09T04:39:45;13.93;;;10.47;;
10711;SDS011;5407;51.234;6.804;2023-10-09T04:42:26;18.70;;;11.37;;
10711;SDS011;5407;51.234;6.804;2023-10-09T04:45:02;19.47;;;10.40;;
10711;SDS011;5407;51.234;6.804;2023-10-09T04:47:46;15.43;;;10.53;;
10711;SDS011;5407;51.234;6.804;2023-10-09T04:50:23;19.07;;;10.00;;
10711;SDS011;5407;51.234;6.804;2023-10-09T04:53:15;13.77;;;9.73;;
10711;SDS011;5407;51.234;6.804;2023-10-09T04:55:50;16.00;;;10.00;;
10711;SDS011;5407;51.234;6.804;2023-10-09T04:58:29;14.77;;;10.03;;
10711;SDS011;5407;51.234;6.804;2023-10-09T05:00:58;14.37;;;10.03;;
10711;SDS011;5407;51.234;6.804;2023-10-09T05:03:41;14.93;;;9.73;;
10711;SDS011;5407;51.234;6.804;2023-10-09T05:06:10;16.20;;;9.33;;
10711;SDS011;5407;51.234;6.804;2023-10-09T05:08:49;13.47;;;10.07;;
10711;SDS011;5407;51.234;6.804;2023-10-09T05:11:21;14.17;;;10.20;;
10711;SDS011;5407;51.234;6.804;2023-10-09T05:14:18;13.57;;;9.67;;
10711;SDS011;5407;51.234;6.804;2023-10-09T05:16:52;15.43;;;9.97;;
10711;SDS011;5407;51.234;6.804;2023-10-09T05:19:26;18.07;;;10.57;;
10711;SDS011;5407;51.234;6.804;2023-10-09T05:22:07;18.03;;;10.47;;
10711;SDS011;5407;51.234;6.804;2023-10-09T05:24:56;18.30;;;10.23;;
10711;SDS011;5407;51.234;6.804;2023-10-09T05:27:23;17.47;;;10.37;;
10711;SDS011;5407;51.234;6.804;2023-10-09T05:30:05;17.83;;;10.67;;
10711;SDS011;5407;51.234;6.804;2023-10-09T05:32:50;16.63;;;9.23;;
10711;SDS011;5407;51.234;6.804;2023-10-09T05:35:21;17.83;;;10.20;;
10711;SDS011;5407;51.234;6.804;2023-10-09T05:37:55;15.57;;;9.67;;
10711;SDS011;5407;51.234;6.804;2023-10-09T05:40:28;12.23;;;9.60;;
10711;SDS011;5407;51.234;6.804;2023-10-09T05:42:57;21.03;;;10.37;;
10711;SDS011;5407;51.234;6.804;2023-10-09T05:45:24;14.53;;;10.23;;
10711;SDS011;5407;51.234;6.804;2023-10-09T05:48:10;14.43;;;10.23;;
10711;SDS011;5407;51.234;6.804;2023-10-09T05:50:54;14.03;;;9.57;;
10711;SDS011;5407;51.234;6.804;2023-10-09T05:53:35;15.73;;;9.70;;
10711;SDS011;5407;51.234;6.804;2023-10-09T05:56:37;16.37;;;10.03;;
10711;SDS011;5407;51.234;6.804;2023-10-09T05:59:22;14.30;;;9.67;;
10711;SDS011;5407;51.234;6.804;2023-10-09T06:02:06;14.30;;;9.47;;
10711;SDS011;5407;51.234;6.804;2023-10-09T06:04:50;14.70;;;9.57;;
10711;SDS011;5407;51.234;6.804;2023-10-09T06:07:20;15.27;;;8.93;;
10711;SDS011;5407;51.234;6.804;2023-10-09T06:10:09;16.77;;;9.20;;
10711;SDS011;5407;51.234;6.804;2023-10-09T06:13:00;14.57;;;8.60;;
10711;SDS011;5407;51.234;6.804;2023-10-09T06:15:35;13.00;;;9.63;;
10711;SDS011;5407;51.234;6.804;2023-10-09T06:18:26;14.60;;;8.80;;
10711;SDS011;5407;51.234;6.804;2023-10-09T06:20:58;17.17;;;9.20;;
10711;SDS011;5407;51.234;6.804;2023-10-09T06:23:48;17.83;;;8.73;;
10711;SDS011;5407;51.234;6.804;2023-10-09T06:26:35;16.67;;;8.90;;
10711;SDS011;5407;51.234;6.804;2023-10-09T06:29:03;12.10;;;8.47;;
10711;SDS011;5407;51.234;6.804;2023-10-09T06:31:59;14.37;;;7.90;;
10711;SDS011;5407;51.234;6.804;2023-10-09T06:34:42;15.50;;;8.30;;
10711;SDS011;5407;51.234;6.804;2023-10-09T06:37:12;14.33;;;8.87;;
10711;SDS011;5407;51.234;6.804;2023-10-09T06:39:53;18.60;;;8.57;;
10711;SDS011;5407;51.234;6.804;2023-10-09T06:43:02;16.67;;;8.90;;
10711;SDS011;5407;51.234;6.804;2023-10-09T06:45:36;15.60;;;8.93;;
10711;SDS011;5407;51.234;6.804;2023-10-09T06:48:10;14.60;;;8.83;;
10711;SDS011;5407;51.234;6.804;2023-10-09T06:50:51;14.23;;;9.27;;
10711;SDS011;5407;51.234;6.804;2023-10-09T06:53:29;16.53;;;8.47;;
10711;SDS011;5407;51.234;6.804;2023-10-09T06:56:10;11.93;;;8.30;;
10711;SDS011;5407;51.234;6.804;2023-10-09T06:58:48;15.90;;;9.00;;
10711;SDS011;5407;51.234;6.804;2023-10-09T07:01:15;19.30;;;9.47;;
10711;SDS011;5407;51.234;6.804;2023-10-09T07:04:07;13.90;;;8.30;;
10711;SDS011;5407;51.234;6.804;2023-10-09T07:06:44;12.23;;;9.10;;
10711;SDS011;5407;51.234;6.804;2023-10-09T07:09:22;20.10;;;9.37;;
10711;SDS011;5407;51.234;6.804;2023-10-09T07:11:48;12.43;;;8.90;;
10711;SDS011;5407;51.234;6.804;2023-10-09T07:14:24;15.50;;;9.10;;
10711;SDS011;5407;51.234;6.804;2023-10-09T07:17:10;15.20;;;9.07;;
10711;SDS011;5407;51.234;6.804;2023-10-09T07:19:47;15.73;;;9.07;;
10711;SDS011;5407;51.234;6.804;2023-10-09T07:22:32;20.53;;;8.93;;
10711;SDS011;5407;51.234;6.804;2023-10-09T07:25:05;17.43;;;9.30;;
10711;SDS011;5407;51.234;6.804;2023-10-09T07:27:53;15.03;;;9.17;;
10711;SDS011;5407;51.234;6.804;2023-10-09T07:30:21;14.47;;;9.17;;
10711;SDS011;5407;51.234;6.804;2023-10-09T07:33:07;13.57;;;8.70;;
10711;SDS011;5407;51.234;6.804;2023-10-09T07:35:43;15.27;;;9.00;;
10711;SDS011;5407;51.234;6.804;2023-10-09T07:38:16;14.03;;;9.40;;
10711;SDS011;5407;51.234;6.804;2023-10-09T07:40:45;15.43;;;9.37;;
10711;SDS011;5407;51.234;6.804;2023-10-09T07:43:25;20.83;;;9.87;;
10711;SDS011;5407;51.234;6.804;2023-10-09T07:45:54;17.53;;;9.80;;
10711;SDS011;5407;51.234;6.804;2023-10-09T07:48:39;17.47;;;9.03;;
10711;SDS011;5407;51.234;6.804;2023-10-09T07:51:14;16.70;;;10.00;;
10711;SDS011;5407;51.234;6.804;2023-10-09T07:53:41;15.27;;;9.90;;
10711;SDS011;5407;51.234;6.804;2023-10-09T07:56:10;13.77;;;9.43;;
10711;SDS011;5407;51.234;6.804;2023-10-09T07:58:39;17.37;;;9.17;;
10711;SDS011;5407;51.234;6.804;2023-10-09T08:01:17;16.87;;;8.53;;
10711;SDS011;5407;51.234;6.804;2023-10-09T08:03:52;19.57;;;8.90;;
10711;SDS011;5407;51.234;6.804;2023-10-09T08:06:27;16.47;;;9.20;;
10711;SDS011;5407;51.234;6.804;2023-10-09T08:09:05;19.07;;;9.70;;
10711;SDS011;5407;51.234;6.804;2023-10-09T08:12:04;16.37;;;8.87;;
10711;SDS011;5407;51.234;6.804;2023-10-09T08:14:40;19.13;;;10.03;;
10711;SDS011;5407;51.234;6.804;2023-10-09T08:17:10;16.00;;;10.03;;
10711;SDS011;5407;51.234;6.804;2023-10-09T08:19:45;15.17;;;9.70;;
10711;SDS011;5407;51.234;6.804;2023-10-09T08:22:23;20.70;;;9.67;;
10711;SDS011;5407;51.234;6.804;2023-10-09T08:25:09;16.40;;;9.27;;
10711;SDS011;5407;51.234;6.804;2023-10-09T08:27:58;19.33;;;9.67;;
10711;SDS011;5407;51.234;6.804;2023-10-09T08:30:40;14.30;;;9.27;;
10711;SDS011;5407;51.234;6.804;2023-10-09T08:33:28;15.70;;;9.93;;
10711;SDS011;5407;51.234;6.804;2023-10-09T08:36:09;14.90;;;9.77;;
10711;SDS011;5407;51.234;6.804;2023-10-09T08:38:40;16.33;;;9.27;;
10711;SDS011;5407;51.234;6.804;2023-10-09T08:41:08;15.53;;;9.80;;
10711;SDS011;5407;51.234;6.804;2023-10-09T08:43:48;17.00;;;10.30;;
10711;SDS011;5407;51.234;6.804;2023-10-09T08:46:20;18.43;;;9.33;;
10711;SDS011;5407;51.234;6.804;2023-10-09T08:48:48;16.07;;;9.33;;
10711;SDS011;5407;51.234;6.804;2023-10-09T08:51:18;15.93;;;10.07;;
10711;SDS011;5407;51.234;6.804;2023-10-09T08:53:46;15.23;;;9.87;;
10711;SDS011;5407;51.234;6.804;2023-10-09T08:56:13;15.60;;;9.77;;
10711;SDS011;5407;51.234;6.804;2023-10-09T08:58:48;16.77;;;10.00;;
10711;SDS011;5407;51.234;6.804;2023-10-09T09:01:16;14.57;;;9.53;;
10711;SDS011;5407;51.234;6.804;2023-10-09T09:03:46;17.47;;;10.50;;
10711;SDS011;5407;51.234;6.804;2023-10-09T09:06:15;20.33;;;10.27;;
10711;SDS011;5407;51.234;6.804;2023-10-09T09:08:46;17.67;;;9.87;;
10711;SDS011;5407;51.234;6.804;2023-10-09T09:11:13;15.63;;;10.20;;
10711;SDS011;5407;51.234;6.804;2023-10-09T09:13:43;16.90;;;10.43;;
10711;SDS011;5407;51.234;6.804;2023-10-09T09:16:15;39.87;;;13.33;;
10711;SDS011;5407;51.234;6.804;2023-10-09T09:18:49;14.77;;;10.27;;
10711;SDS011;5407;51.234;6.804;2023-10-09T09:21:23;11.93;;;9.90;;
10711;SDS011;5407;51.234;6.804;2023-10-09T09:23:53;17.90;;;9.87;;
10711;SDS011;5407;51.234;6.804;2023-10-09T09:26:32;12.73;;;8.97;;
10711;SDS011;5407;51.234;6.804;2023-10-09T09:29:02;19.43;;;10.33;;
10711;SDS011;5407;51.234;6.804;2023-10-09T09:31:32;16.50;;;10.10;;
10711;SDS011;5407;51.234;6.804;2023-10-09T09:34:03;17.47;;;9.10;;
10711;SDS011;5407;51.234;6.804;2023-10-09T09:36:50;16.70;;;9.80;;
10711;SDS011;5407;51.234;6.804;2023-10-09T09:39:23;19.17;;;9.15;;
10711;SDS011;5407;51.234;6.804;2023-10-09T09:41:55;14.57;;;9.10;;
10711;SDS011;5407;51.234;6.804;2023-10-09T09:44:32;15.20;;;8.70;;
10711;SDS011;5407;51.234;6.804;2023-10-09T09:47:09;19.77;;;8.43;;
10711;SDS011;5407;51.234;6.804;2023-10-09T09:49:40;17.93;;;8.60;;
10711;SDS011;5407;51.234;6.804;2023-10-09T09:52:09;14.27;;;8.73;;
10711;SDS011;5407;51.234;6.804;2023-10-09T09:54:37;15.17;;;8.00;;
10711;SDS011;5407;51.234;6.804;2023-10-09T09:57:06;19.53;;;8.60;;
10711;SDS011;5407;51.234;6.804;2023-10-09T09:59:38;14.77;;;8.18;;
10711;SDS011;5407;51.234;6.804;2023-10-09T10:02:18;10.67;;;7.60;;
10711;SDS011;5407;51.234;6.804;2023-10-09T10:04:51;11.98;;;7.45;;
10711;SDS011;5407;51.234;6.804;2023-10-09T10:07:24;12.47;;;7.63;;
10711;SDS011;5407;51.234;6.804;2023-10-09T10:09:54;14.63;;;7.80;;
10711;SDS011;5407;51.234;6.804;2023-10-09T10:18:30;13.30;;;7.50;;
10711;SDS011;5407;51.234;6.804;2023-10-09T10:21:10;20.48;;;8.98;;
10711;SDS011;5407;51.234;6.804;2023-10-09T10:23:43;17.13;;;8.60;;
10711;SDS011;5407;51.234;6.804;2023-10-09T10:26:19;14.45;;;8.45;;
10711;SDS011;5407;51.234;6.804;2023-10-09T10:31:52;15.20;;;8.37;;
10711;SDS011;5407;51.234;6.804;2023-10-09T10:34:21;20.63;;;9.03;;
10711;SDS011;5407;51.234;6.804;2023-10-09T10:36:50;14.40;;;8.70;;
10711;SDS011;5407;51.234;6.804;2023-10-09T10:39:25;16.80;;;8.40;;
10711;SDS011;5407;51.234;6.804;2023-10-09T10:42:14;16.63;;;7.97;;
10711;SDS011;5407;51.234;6.804;2023-10-09T10:44:59;13.73;;;7.63;;
10711;SDS011;5407;51.234;6.804;2023-10-09T10:47:40;12.68;;;7.93;;
10711;SDS011;5407;51.234;6.804;2023-10-09T10:50:07;14.73;;;8.00;;
10711;SDS011;5407;51.234;6.804;2023-10-09T10:53:07;16.35;;;7.90;;
10711;SDS011;5407;51.234;6.804;2023-10-09T10:55:56;13.32;;;7.85;;
10711;SDS011;5407;51.234;6.804;2023-10-09T10:58:23;10.25;;;7.40;;
10711;SDS011;5407;51.234;6.804;2023-10-09T11:01:00;14.38;;;8.05;;
10711;SDS011;5407;51.234;6.804;2023-10-09T11:03:37;13.32;;;7.93;;
10711;SDS011;5407;51.234;6.804;2023-10-09T11:06:29;14.05;;;7.88;;
10711;SDS011;5407;51.234;6.804;2023-10-09T11:09:07;14.52;;;7.82;;
10711;SDS011;5407;51.234;6.804;2023-10-09T11:11:47;16.75;;;8.27;;
10711;SDS011;5407;51.234;6.804;2023-10-09T11:14:15;15.32;;;7.97;;
10711;SDS011;5407;51.234;6.804;2023-10-09T11:16:42;12.65;;;8.07;;
10711;SDS011;5407;51.234;6.804;2023-10-09T11:19:13;11.75;;;8.23;;
10711;SDS011;5407;51.234;6.804;2023-10-09T11:21:54;14.13;;;8.02;;
10711;SDS011;5407;51.234;6.804;2023-10-09T11:24:46;12.93;;;7.70;;
10711;SDS011;5407;51.234;6.804;2023-10-09T11:27:39;13.27;;;8.25;;
10711;SDS011;5407;51.234;6.804;2023-10-09T11:30:15;16.15;;;8.73;;
10711;SDS011;5407;51.234;6.804;2023-10-09T11:33:03;16.77;;;9.02;;
10711;SDS011;5407;51.234;6.804;2023-10-09T11:35:30;15.50;;;8.13;;
10711;SDS011;5407;51.234;6.804;2023-10-09T11:38:00;11.80;;;7.85;;
10711;SDS011;5407;51.234;6.804;2023-10-09T11:40:27;13.60;;;7.80;;
10711;SDS011;5407;51.234;6.804;2023-10-09T11:43:15;15.10;;;8.25;;
10711;SDS011;5407;51.234;6.804;2023-10-09T11:45:42;12.68;;;8.30;;
10711;SDS011;5407;51.234;6.804;2023-10-09T11:48:19;13.43;;;7.82;;
10711;SDS011;5407;51.234;6.804;2023-10-09T11:50:58;15.45;;;8.18;;
10711;SDS011;5407;51.234;6.804;2023-10-09T11:53:52;13.85;;;7.63;;
10711;SDS011;5407;51.234;6.804;2023-10-09T11:56:21;16.52;;;8.50;;
10711;SDS011;5407;51.234;6.804;2023-10-09T11:58:52;11.70;;;7.50;;
10711;SDS011;5407;51.234;6.804;2023-10-09T12:01:23;14.23;;;7.80;;
10711;SDS011;5407;51.234;6.804;2023-10-09T12:03:51;14.32;;;8.27;;
10711;SDS011;5407;51.234;6.804;2023-10-09T12:06:19;11.38;;;7.50;;
10711;SDS011;5407;51.234;6.804;2023-10-09T12:08:48;11.80;;;8.30;;
10711;SDS011;5407;51.234;6.804;2023-10-09T12:11:17;13.90;;;7.97;;
10711;SDS011;5407;51.234;6.804;2023-10-09T12:13:47;12.40;;;7.75;;
10711;SDS011;5407;51.234;6.804;2023-10-09T12:16:21;12.15;;;7.55;;
10711;SDS011;5407;51.234;6.804;2023-10-09T12:18:53;13.10;;;7.68;;
10711;SDS011;5407;51.234;6.804;2023-10-09T12:21:20;19.08;;;8.40;;
10711;SDS011;5407;51.234;6.804;2023-10-09T12:23:48;18.73;;;7.40;;
10711;SDS011;5407;51.234;6.804;2023-10-09T12:26:16;13.65;;;7.85;;
10711;SDS011;5407;51.234;6.804;2023-10-09T12:28:44;16.95;;;7.72;;
10711;SDS011;5407;51.234;6.804;2023-10-09T12:31:11;15.52;;;8.20;;
10711;SDS011;5407;51.234;6.804;2023-10-09T12:33:40;12.93;;;7.30;;
10711;SDS011;5407;51.234;6.804;2023-10-09T12:36:11;13.05;;;7.55;;
10711;SDS011;5407;51.234;6.804;2023-10-09T12:38:43;13.40;;;7.70;;
10711;SDS011;5407;51.234;6.804;2023-10-09T12:41:11;14.68;;;7.72;;
10711;SDS011;5407;51.234;6.804;2023-10-09T12:43:46;17.50;;;7.95;;
10711;SDS011;5407;51.234;6.804;2023-10-09T12:46:13;10.32;;;7.10;;
10711;SDS011;5407;51.234;6.804;2023-10-09T12:48:41;11.70;;;7.30;;
10711;SDS011;5407;51.234;6.804;2023-10-09T12:51:11;12.35;;;7.38;;
10711;SDS011;5407;51.234;6.804;2023-10-09T12:53:41;11.43;;;7.10;;
10711;SDS011;5407;51.234;6.804;2023-10-09T12:56:08;12.95;;;7.55;;
10711;SDS011;5407;51.234;6.804;2023-10-09T12:58:37;13.02;;;7.22;;
10711;SDS011;5407;51.234;6.804;2023-10-09T13:01:06;10.50;;;7.25;;
10711;SDS011;5407;51.234;6.804;2023-10-09T13:03:37;12.00;;;7.07;;
10711;SDS011;5407;51.234;6.804;2023-10-09T13:06:04;11.93;;;7.82;;
10711;SDS011;5407;51.234;6.804;2023-10-09T13:08:35;12.15;;;7.18;;
10711;SDS011;5407;51.234;6.804;2023-10-09T13:11:06;12.75;;;7.50;;
10711;SDS011;5407;51.234;6.804;2023-10-09T13:13:35;15.90;;;7.50;;
10711;SDS011;5407;51.234;6.804;2023-10-09T13:16:11;11.98;;;6.85;;
10711;SDS011;5407;51.234;6.804;2023-10-09T13:18:46;14.73;;;7.45;;
10711;SDS011;5407;51.234;6.804;2023-10-09T13:21:15;15.77;;;7.80;;
10711;SDS011;5407;51.234;6.804;2023-10-09T13:23:42;11.55;;;7.88;;
10711;SDS011;5407;51.234;6.804;2023-10-09T13:26:12;18.15;;;8.20;;
10711;SDS011;5407;51.234;6.804;2023-10-09T13:28:49;14.30;;;8.25;;
10711;SDS011;5407;51.234;6.804;2023-10-09T13:31:19;14.38;;;7.47;;
10711;SDS011;5407;51.234;6.804;2023-10-09T13:33:51;17.48;;;8.30;;
10711;SDS011;5407;51.234;6.804;2023-10-09T13:36:19;20.63;;;8.60;;
10711;SDS011;5407;51.234;6.804;2023-10-09T13:38:56;16.15;;;8.45;;
10711;SDS011;5407;51.234;6.804;2023-10-09T13:41:27;15.30;;;8.15;;
10711;SDS011;5407;51.234;6.804;2023-10-09T13:43:54;15.38;;;8.40;;
10711;SDS011;5407;51.234;6.804;2023-10-09T13:46:24;16.80;;;8.25;;
10711;SDS011;5407;51.234;6.804;2023-10-09T13:48:51;14.02;;;9.07;;
10711;SDS011;5407;51.234;6.804;2023-10-09T13:51:19;13.25;;;8.63;;
10711;SDS011;5407;51.234;6.804;2023-10-09T13:53:49;14.27;;;9.05;;
10711;SDS011;5407;51.234;6.804;2023-10-09T13:56:16;16.67;;;9.43;;
10711;SDS011;5407;51.234;6.804;2023-10-09T13:58:46;13.05;;;8.15;;
10711;SDS011;5407;51.234;6.804;2023-10-09T14:01:19;15.63;;;9.27;;
10711;SDS011;5407;51.234;6.804;2023-10-09T14:03:54;12.73;;;9.25;;
10711;SDS011;5407;51.234;6.804;2023-10-09T14:06:22;16.85;;;8.88;;
10711;SDS011;5407;51.234;6.804;2023-10-09T14:08:57;14.40;;;9.00;;
10711;SDS011;5407;51.234;6.804;2023-10-09T14:11:25;15.10;;;9.25;;
10711;SDS011;5407;51.234;6.804;2023-10-09T14:13:53;13.80;;;8.30;;
10711;SDS011;5407;51.234;6.804;2023-10-09T14:16:20;16.50;;;9.87;;
10711;SDS011;5407;51.234;6.804;2023-10-09T14:18:52;13.87;;;9.53;;
10711;SDS011;5407;51.234;6.804;2023-10-09T14:21:25;19.38;;;9.88;;
10711;SDS011;5407;51.234;6.804;2023-10-09T14:23:53;16.38;;;10.52;;
10711;SDS011;5407;51.234;6.804;2023-10-09T14:26:23;14.52;;;9.23;;
10711;SDS011;5407;51.234;6.804;2023-10-09T14:28:53;16.90;;;9.40;;
10711;SDS011;5407;51.234;6.804;2023-10-09T14:31:22;19.77;;;8.43;;
10711;SDS011;5407;51.234;6.804;2023-10-09T14:33:55;14.98;;;8.68;;
10711;SDS011;5407;51.234;6.804;2023-10-09T14:36:22;14.27;;;8.73;;
10711;SDS011;5407;51.234;6.804;2023-10-09T14:38:57;16.83;;;9.45;;
10711;SDS011;5407;51.234;6.804;2023-10-09T14:41:25;14.98;;;9.13;;
10711;SDS011;5407;51.234;6.804;2023-10-09T14:43:53;16.67;;;9.70;;
10711;SDS011;5407;51.234;6.804;2023-10-09T14:46:24;16.27;;;9.13;;
10711;SDS011;5407;51.234;6.804;2023-10-09T14:48:54;13.53;;;9.00;;
10711;SDS011;5407;51.234;6.804;2023-10-09T14:51:22;14.32;;;10.20;;
10711;SDS011;5407;51.234;6.804;2023-10-09T14:53:55;15.98;;;9.80;;
10711;SDS011;5407;51.234;6.804;2023-10-09T14:56:24;18.77;;;10.95;;
10711;SDS011;5407;51.234;6.804;2023-10-09T14:58:55;18.10;;;10.35;;
10711;SDS011;5407;51.234;6.804;2023-10-09T15:01:24;18.73;;;9.23;;
10711;SDS011;5407;51.234;6.804;2023-10-09T15:03:56;19.98;;;10.20;;
10711;SDS011;5407;51.234;6.804;2023-10-09T15:06:25;18.50;;;9.33;;
10711;SDS011;5407;51.234;6.804;2023-10-09T15:08:55;15.27;;;9.43;;
10711;SDS011;5407;51.234;6.804;2023-10-09T15:11:23;14.05;;;8.65;;
10711;SDS011;5407;51.234;6.804;2023-10-09T15:13:51;17.27;;;9.25;;
10711;SDS011;5407;51.234;6.804;2023-10-09T15:16:18;14.25;;;8.80;;
10711;SDS011;5407;51.234;6.804;2023-10-09T15:18:47;16.60;;;9.02;;
10711;SDS011;5407;51.234;6.804;2023-10-09T15:21:19;17.77;;;9.43;;
10711;SDS011;5407;51.234;6.804;2023-10-09T15:23:48;21.15;;;9.30;;
10711;SDS011;5407;51.234;6.804;2023-10-09T15:26:19;15.15;;;8.63;;
10711;SDS011;5407;51.234;6.804;2023-10-09T15:28:47;20.13;;;9.48;;
10711;SDS011;5407;51.234;6.804;2023-10-09T15:31:16;17.17;;;8.85;;
10711;SDS011;5407;51.234;6.804;2023-10-09T15:33:44;17.33;;;8.70;;